createdAt,value
2022-11-24T00:00:43.947Z,6.50
2022-11-24T00:03:48.512Z,6.40
2022-11-24T00:06:53.349Z,6.30
2022-11-24T00:09:56.292Z,6.30
2022-11-24T00:12:59.222Z,6.30
2022-11-24T00:16:08.869Z,6.40
2022-11-24T00:19:16.999Z,6.40
2022-11-24T00:22:22.570Z,6.40
2022-11-24T00:25:25.526Z,6.40
2022-11-24T00:28:28.280Z,6.30
2022-11-24T00:31:34.319Z,6.20
2022-11-24T00:34:37.455Z,6.30
2022-11-24T00:37:40.464Z,6.40
2022-11-24T00:40:44.112Z,6.30
2022-11-24T00:43:47.095Z,6.30
2022-11-24T00:46:51.475Z,6.30
2022-11-24T00:49:54.448Z,6.40
2022-11-24T00:52:57.390Z,6.40
2022-11-24T00:56:00.509Z,6.30
2022-11-24T00:59:03.518Z,6.30
2022-11-24T01:02:07.905Z,6.20
2022-11-24T01:05:11.252Z,6.30
2022-11-24T01:08:14.294Z,6.20
2022-11-24T01:11:20.001Z,6.30
2022-11-24T01:14:24.356Z,6.30
2022-11-24T01:17:28.890Z,6.20
2022-11-24T01:20:32.060Z,6.30
2022-11-24T01:23:35.150Z,6.10
2022-11-24T01:26:38.592Z,6.20
2022-11-24T01:29:41.548Z,6.20
2022-11-24T01:32:45.819Z,6.30
2022-11-24T01:35:48.742Z,6.30
2022-11-24T01:38:52.357Z,6.20
2022-11-24T01:41:55.279Z,6.30
2022-11-24T01:45:33.071Z,6.30
2022-11-24T01:48:41.469Z,6.40
2022-11-24T01:51:49.255Z,6.30
2022-11-24T01:54:56.676Z,6.30
2022-11-24T01:58:04.825Z,6.30
2022-11-24T02:01:08.019Z,6.30
2022-11-24T02:04:15.348Z,6.30
2022-11-24T02:07:19.012Z,6.30
2022-11-24T02:10:23.441Z,6.40
2022-11-24T02:13:26.523Z,6.40
2022-11-24T02:16:30.691Z,6.30
2022-11-24T02:19:45.214Z,6.20
2022-11-24T02:22:54.628Z,6.20
2022-11-24T02:26:05.434Z,6.30
2022-11-24T02:29:09.982Z,6.40
2022-11-24T02:32:13.338Z,6.30
2022-11-24T02:35:17.458Z,6.30
2022-11-24T02:38:20.499Z,6.30
2022-11-24T02:41:25.609Z,6.30
2022-11-24T02:44:33.702Z,6.20
2022-11-24T02:47:36.804Z,6.10
2022-11-24T02:50:39.756Z,6.20
2022-11-24T02:53:42.722Z,6.10
2022-11-24T02:56:45.655Z,6.00
2022-11-24T02:59:49.956Z,5.90
2022-11-24T03:02:53.074Z,5.80
2022-11-24T03:05:56.037Z,5.80
2022-11-24T03:08:59.037Z,5.80
2022-11-24T03:12:02.020Z,5.80
2022-11-24T03:15:07.372Z,5.80
2022-11-24T03:18:10.295Z,5.70
2022-11-24T03:21:13.210Z,5.80
2022-11-24T03:24:16.290Z,5.80
2022-11-24T03:27:19.204Z,5.80
2022-11-24T03:30:23.514Z,5.80
2022-11-24T03:33:26.436Z,5.80
2022-11-24T03:36:29.401Z,5.80
2022-11-24T03:39:32.344Z,5.80
2022-11-24T03:42:35.269Z,5.80
2022-11-24T03:45:47.276Z,5.90
2022-11-24T03:48:50.301Z,5.90
2022-11-24T03:51:53.234Z,6.00
2022-11-24T03:54:56.176Z,6.00
2022-11-24T03:57:59.126Z,6.00
2022-11-24T04:01:03.538Z,6.10
2022-11-24T04:04:06.710Z,6.10
2022-11-24T04:07:09.682Z,6.20
2022-11-24T04:10:12.690Z,6.20
2022-11-24T04:13:16.927Z,6.20
2022-11-24T04:16:21.239Z,6.20
2022-11-24T04:19:24.226Z,6.30
2022-11-24T04:22:27.155Z,6.40
2022-11-24T04:25:30.471Z,6.50
2022-11-24T04:28:33.388Z,6.40
2022-11-24T04:31:37.695Z,6.50
2022-11-24T04:34:40.744Z,6.50
2022-11-24T04:37:43.715Z,6.50
2022-11-24T04:40:46.672Z,6.50
2022-11-24T04:43:50.334Z,6.50
2022-11-24T04:46:54.685Z,6.50
2022-11-24T04:49:57.746Z,6.50
2022-11-24T04:53:00.678Z,6.60
2022-11-24T04:56:05.751Z,6.60
2022-11-24T04:59:08.883Z,6.50
2022-11-24T05:02:13.625Z,6.60
2022-11-24T05:05:16.845Z,6.60
2022-11-24T05:08:19.781Z,6.70
2022-11-24T05:11:22.787Z,6.70
2022-11-24T05:14:26.016Z,6.70
2022-11-24T05:17:32.258Z,6.70
2022-11-24T05:20:35.934Z,6.70
2022-11-24T05:23:38.856Z,6.70
2022-11-24T05:26:41.786Z,6.60
2022-11-24T05:29:44.907Z,6.70
2022-11-24T05:32:49.193Z,6.70
2022-11-24T05:35:52.138Z,6.70
2022-11-24T05:38:55.052Z,6.60
2022-11-24T05:41:58.007Z,6.70
2022-11-24T05:45:00.964Z,6.70
2022-11-24T05:48:07.920Z,6.80
2022-11-24T05:51:10.869Z,6.90
2022-11-24T05:54:13.816Z,6.80
2022-11-24T05:57:17.916Z,6.80
2022-11-24T06:00:20.963Z,6.90
2022-11-24T06:03:25.276Z,6.90
2022-11-24T06:06:28.625Z,6.90
2022-11-24T06:09:31.550Z,7.00
2022-11-24T06:12:34.508Z,7.00
2022-11-24T06:15:38.519Z,7.00
2022-11-24T06:18:42.857Z,7.10
2022-11-24T06:21:45.806Z,7.10
2022-11-24T06:24:50.537Z,7.00
2022-11-24T06:27:53.490Z,7.00
2022-11-24T06:30:56.411Z,7.00
2022-11-24T06:34:01.023Z,7.00
2022-11-24T06:37:04.016Z,7.00
2022-11-24T06:40:09.693Z,6.90
2022-11-24T06:43:12.626Z,6.80
2022-11-24T06:46:16.500Z,6.80
2022-11-24T06:49:20.771Z,6.70
2022-11-24T06:52:23.691Z,6.70
2022-11-24T06:55:26.685Z,6.60
2022-11-24T06:58:29.661Z,6.60
2022-11-24T07:01:32.901Z,6.60
2022-11-24T07:04:37.302Z,6.60
2022-11-24T07:07:40.437Z,6.60
2022-11-24T07:10:43.424Z,6.50
2022-11-24T07:13:47.015Z,6.50
2022-11-24T07:16:50.033Z,6.40
2022-11-24T07:19:54.322Z,6.40
2022-11-24T07:22:57.868Z,6.50
2022-11-24T07:26:06.721Z,6.60
2022-11-24T07:29:10.073Z,6.60
2022-11-24T07:32:13.043Z,6.50
2022-11-24T07:35:17.792Z,6.50
2022-11-24T07:38:20.745Z,6.40
2022-11-24T07:41:23.693Z,6.40
2022-11-24T07:44:26.865Z,6.40
2022-11-24T07:47:29.810Z,6.40
2022-11-24T07:50:34.084Z,6.40
2022-11-24T07:53:37.463Z,6.40
2022-11-24T07:56:40.477Z,6.50
2022-11-24T07:59:43.398Z,6.60
2022-11-24T08:02:46.319Z,6.60
2022-11-24T08:06:22.314Z,6.60
2022-11-24T08:09:19.156Z,6.50
2022-11-24T08:12:22.524Z,6.60
2022-11-24T08:15:25.482Z,6.70
2022-11-24T08:18:28.431Z,6.90
2022-11-24T08:21:32.730Z,6.90
2022-11-24T08:24:35.964Z,7.00
2022-11-24T08:27:40.119Z,7.10
2022-11-24T08:30:43.495Z,7.20
2022-11-24T08:33:46.897Z,7.10
2022-11-24T08:36:51.177Z,7.20
2022-11-24T08:39:54.115Z,7.30
2022-11-24T08:42:58.399Z,7.40
2022-11-24T08:46:02.077Z,7.40
2022-11-24T08:49:06.391Z,7.50
2022-11-24T08:52:10.693Z,7.50
2022-11-24T08:55:13.619Z,7.70
2022-11-24T08:58:16.578Z,7.80
2022-11-24T09:01:19.608Z,8.00
2022-11-24T09:04:22.649Z,8.00
2022-11-24T09:07:27.051Z,8.20
2022-11-24T09:10:30.089Z,8.20
2022-11-24T09:13:33.434Z,8.40
2022-11-24T09:16:36.926Z,8.60
2022-11-24T09:19:40.038Z,8.70
2022-11-24T09:22:44.328Z,8.80
2022-11-24T09:25:47.252Z,8.80
2022-11-24T09:28:54.372Z,8.90
2022-11-24T09:32:00.726Z,8.90
2022-11-24T09:35:07.294Z,8.90
2022-11-24T09:38:13.397Z,8.90
2022-11-24T09:41:36.442Z,8.70
2022-11-24T09:44:56.571Z,8.90
2022-11-24T09:48:04.217Z,9.00
2022-11-24T09:51:11.404Z,9.10
2022-11-24T09:54:20.283Z,8.90
2022-11-24T09:57:26.785Z,9.00
2022-11-24T10:00:30.729Z,9.10
2022-11-24T10:03:38.551Z,9.20
2022-11-24T10:06:48.107Z,9.30
2022-11-24T10:10:03.188Z,9.20
2022-11-24T10:13:22.682Z,9.50
2022-11-24T10:16:40.387Z,9.80
2022-11-24T10:19:48.251Z,9.70
2022-11-24T10:22:59.597Z,9.70
2022-11-24T10:26:08.805Z,9.90
2022-11-24T10:29:22.277Z,9.90
2022-11-24T10:32:30.449Z,10.10
2022-11-24T10:35:39.065Z,10.10
2022-11-24T10:38:48.090Z,9.90
2022-11-24T10:41:58.388Z,10.00
2022-11-24T10:45:02.601Z,10.00
2022-11-24T10:48:13.193Z,9.90
2022-11-24T10:51:38.152Z,10.00
2022-11-24T10:54:55.633Z,10.00
2022-11-24T10:58:16.265Z,10.00
2022-11-24T11:01:29.387Z,10.00
2022-11-24T11:04:34.287Z,10.20
2022-11-24T11:07:37.328Z,10.30
2022-11-24T11:10:40.544Z,10.40
2022-11-24T11:13:58.254Z,10.60
2022-11-24T11:17:20.116Z,10.90
2022-11-24T11:20:29.880Z,10.90
2022-11-24T11:23:36.605Z,10.70
2022-11-24T11:26:41.506Z,10.50
2022-11-24T11:36:47.539Z,10.20
2022-11-24T11:39:52.079Z,10.00
2022-11-24T11:43:03.027Z,10.00
2022-11-24T11:46:15.544Z,10.20
2022-11-24T11:49:18.673Z,10.40
2022-11-24T11:52:46.864Z,10.40
2022-11-24T11:56:04.670Z,10.50
2022-11-24T11:59:23.293Z,10.50
2022-11-24T12:02:53.925Z,10.50
2022-11-24T12:06:05.498Z,10.40
2022-11-24T12:09:20.622Z,10.50
2022-11-24T12:12:40.596Z,10.70
2022-11-24T12:15:49.245Z,10.80
2022-11-24T12:19:08.105Z,10.70
2022-11-24T12:22:17.715Z,10.80
2022-11-24T12:25:27.820Z,10.90
2022-11-24T12:28:41.794Z,10.80
2022-11-24T12:31:52.858Z,10.90
2022-11-24T12:35:03.556Z,11.00
2022-11-24T12:38:37.135Z,11.10
2022-11-24T12:41:55.703Z,11.30
2022-11-24T12:45:13.949Z,11.30
2022-11-24T12:48:32.943Z,11.30
2022-11-24T12:51:42.875Z,11.40
2022-11-24T12:54:45.793Z,11.50
2022-11-24T12:57:56.521Z,11.40
2022-11-24T13:01:15.938Z,11.40
2022-11-24T13:04:30.752Z,11.50
2022-11-24T13:07:45.133Z,11.70
2022-11-24T13:10:57.519Z,11.80
2022-11-24T13:14:03.398Z,11.90
2022-11-24T13:17:31.887Z,11.90
2022-11-24T13:20:41.087Z,11.70
2022-11-24T13:23:57.522Z,11.70
2022-11-24T13:27:29.029Z,11.70
2022-11-24T13:30:58.978Z,11.70
2022-11-24T13:34:02.048Z,11.50
2022-11-24T13:37:31.271Z,11.50
2022-11-24T13:40:59.729Z,11.50
2022-11-24T13:44:26.915Z,11.50
2022-11-24T13:47:48.187Z,11.40
2022-11-24T13:51:22.312Z,11.40
2022-11-24T13:54:42.582Z,11.30
2022-11-24T13:57:49.087Z,11.30
2022-11-24T14:01:13.172Z,11.20
2022-11-24T14:04:30.599Z,11.10
2022-11-24T14:07:35.571Z,11.10
2022-11-24T14:10:42.189Z,10.90
2022-11-24T14:13:46.485Z,11.00
2022-11-24T14:16:49.597Z,11.00
2022-11-24T14:19:53.982Z,11.00
2022-11-24T14:22:56.950Z,11.10
2022-11-24T14:25:59.905Z,11.10
2022-11-24T14:29:08.574Z,11.10
2022-11-24T14:32:17.562Z,11.00
2022-11-24T14:35:24.677Z,11.10
2022-11-24T14:38:27.922Z,10.90
2022-11-24T14:41:31.848Z,10.90
2022-11-24T14:44:46.485Z,11.10
2022-11-24T14:47:49.867Z,10.90
2022-11-24T14:50:53.016Z,10.90
2022-11-24T14:53:59.516Z,11.00
2022-11-24T14:57:05.096Z,11.00
2022-11-24T15:00:20.322Z,10.90
2022-11-24T15:03:23.315Z,10.90
2022-11-24T15:06:26.277Z,10.90
2022-11-24T15:09:33.931Z,10.90
2022-11-24T15:12:39.801Z,10.80
2022-11-24T15:15:53.664Z,10.70
2022-11-24T15:19:01.332Z,10.60
2022-11-24T15:22:29.258Z,10.70
2022-11-24T15:25:33.821Z,10.80
2022-11-24T15:28:36.835Z,10.80
2022-11-24T15:31:44.205Z,10.70
2022-11-24T15:34:50.785Z,10.60
2022-11-24T15:37:53.723Z,10.60
2022-11-24T15:40:59.505Z,10.50
2022-11-24T15:44:02.453Z,10.50
2022-11-24T15:47:06.783Z,10.50
2022-11-24T15:50:10.825Z,10.40
2022-11-24T15:53:19.323Z,10.40
2022-11-24T15:56:26.347Z,10.30
2022-11-24T15:59:31.146Z,10.30
2022-11-24T16:02:35.432Z,10.30
2022-11-24T16:05:39.522Z,10.30
2022-11-24T16:08:42.461Z,10.20
2022-11-24T16:11:45.501Z,10.20
2022-11-24T16:14:48.450Z,10.10
2022-11-24T16:17:52.751Z,9.90
2022-11-24T16:20:55.701Z,9.80
2022-11-24T16:23:58.674Z,9.70
2022-11-24T16:27:01.615Z,9.50
2022-11-24T16:30:05.123Z,9.40
2022-11-24T16:33:09.381Z,9.30
2022-11-24T16:36:12.391Z,9.10
2022-11-24T16:39:15.357Z,9.00
2022-11-24T16:42:18.689Z,8.90
2022-11-24T16:45:21.625Z,8.80
2022-11-24T16:48:25.877Z,8.70
2022-11-24T16:51:34.453Z,8.60
2022-11-24T16:54:38.014Z,8.60
2022-11-24T16:57:41.025Z,8.50
2022-11-24T17:00:44.652Z,8.40
2022-11-24T17:03:49.164Z,8.40
2022-11-24T17:06:52.329Z,8.30
2022-11-24T17:09:55.260Z,8.30
2022-11-24T17:12:58.442Z,8.20
2022-11-24T17:16:05.437Z,8.20
2022-11-24T17:19:09.715Z,8.10
2022-11-24T17:22:12.871Z,8.10
2022-11-24T17:25:16.073Z,8.10
2022-11-24T17:28:19.470Z,8.10
2022-11-24T17:31:24.524Z,8.00
2022-11-24T17:34:28.820Z,7.90
2022-11-24T17:37:33.047Z,7.90
2022-11-24T17:40:36.299Z,7.80
2022-11-24T17:43:39.252Z,7.80
2022-11-24T17:46:42.180Z,7.80
2022-11-24T17:49:46.466Z,7.70
2022-11-24T17:52:49.382Z,7.70
2022-11-24T17:55:52.300Z,7.60
2022-11-24T17:58:56.893Z,7.60
2022-11-24T18:02:00.036Z,7.50
2022-11-24T18:05:04.596Z,7.50
2022-11-24T18:08:07.858Z,7.50
2022-11-24T18:11:12.873Z,7.50
2022-11-24T18:14:15.812Z,7.40
2022-11-24T18:17:18.820Z,7.50
2022-11-24T18:20:23.136Z,7.50
2022-11-24T18:23:26.586Z,7.40
2022-11-24T18:26:29.699Z,7.40
2022-11-24T18:29:32.646Z,7.40
2022-11-24T18:32:35.608Z,7.40
2022-11-24T18:35:40.212Z,7.30
2022-11-24T18:38:43.439Z,7.30
2022-11-24T18:41:46.693Z,7.30
2022-11-24T18:44:52.680Z,7.30
2022-11-24T18:47:57.109Z,7.30
2022-11-24T18:51:01.452Z,7.40
2022-11-24T18:54:05.378Z,7.40
2022-11-24T18:57:08.503Z,7.30
2022-11-24T19:00:12.825Z,7.30
2022-11-24T19:03:15.774Z,7.20
2022-11-24T19:06:21.667Z,7.20
2022-11-24T19:09:25.496Z,7.10
2022-11-24T19:12:28.443Z,7.10
2022-11-24T19:15:34.367Z,7.00
2022-11-24T19:18:37.300Z,7.00
2022-11-24T19:21:42.076Z,7.00
2022-11-24T19:24:46.469Z,6.90
2022-11-24T19:27:49.578Z,6.90
2022-11-24T19:30:52.516Z,6.80
2022-11-24T19:33:55.535Z,6.80
2022-11-24T19:36:59.807Z,6.80
2022-11-24T19:40:02.827Z,6.80
2022-11-24T19:43:05.849Z,6.80
2022-11-24T19:46:11.651Z,6.70
2022-11-24T19:49:14.658Z,6.70
2022-11-24T19:52:18.928Z,6.60
2022-11-24T19:55:21.873Z,6.60
2022-11-24T19:58:24.921Z,6.60
2022-11-24T20:01:29.330Z,6.60
2022-11-24T20:04:33.218Z,6.50
2022-11-24T20:07:37.895Z,6.50
2022-11-24T20:10:44.592Z,6.50
2022-11-24T20:13:49.685Z,6.50
2022-11-24T20:16:52.712Z,6.40
2022-11-24T20:19:55.691Z,6.40
2022-11-24T20:22:59.997Z,6.40
2022-11-24T20:26:06.604Z,6.40
2022-11-24T20:29:11.399Z,6.40
2022-11-24T20:32:19.364Z,6.40
2022-11-24T20:35:22.349Z,6.30
2022-11-24T20:38:26.617Z,6.30
2022-11-24T20:41:31.335Z,6.30
2022-11-24T20:44:34.799Z,6.20
2022-11-24T20:47:38.000Z,6.10
2022-11-24T20:50:40.908Z,6.10
2022-11-24T20:53:45.218Z,6.00
2022-11-24T20:56:48.793Z,6.00
2022-11-24T20:59:52.320Z,6.00
2022-11-24T21:02:57.539Z,6.00
2022-11-24T21:06:00.805Z,6.00
2022-11-24T21:09:05.211Z,6.00
2022-11-24T21:12:08.356Z,5.90
2022-11-24T21:15:11.428Z,5.90
2022-11-24T21:18:14.565Z,5.80
2022-11-24T21:21:17.872Z,5.80
2022-11-24T21:24:22.455Z,5.80
2022-11-24T21:27:27.023Z,5.80
2022-11-24T21:30:30.167Z,5.80
2022-11-24T21:33:33.739Z,5.80
2022-11-24T21:36:40.611Z,5.80
2022-11-24T21:39:45.365Z,5.80
2022-11-24T21:42:48.366Z,5.90
2022-11-24T21:45:51.421Z,5.80
2022-11-24T21:48:55.356Z,5.80
2022-11-24T21:51:58.317Z,5.80
2022-11-24T21:55:02.641Z,5.80
2022-11-24T21:58:07.019Z,5.70
2022-11-24T22:01:10.905Z,5.70
2022-11-24T22:04:13.905Z,5.70
2022-11-24T22:07:16.878Z,5.70
2022-11-24T22:10:21.190Z,5.70
2022-11-24T22:13:24.125Z,5.60
2022-11-24T22:16:27.116Z,5.60
2022-11-24T22:19:30.082Z,5.50
2022-11-24T22:22:33.008Z,5.60
2022-11-24T22:25:37.458Z,5.60
2022-11-24T22:28:40.636Z,5.60
2022-11-24T22:31:43.853Z,5.60
2022-11-24T22:34:46.824Z,5.70
2022-11-24T22:37:49.795Z,5.70
2022-11-24T22:40:54.132Z,5.70
2022-11-24T22:43:57.172Z,5.70
2022-11-24T22:47:00.092Z,5.70
2022-11-24T22:50:03.024Z,5.80
2022-11-24T22:53:05.940Z,5.80
2022-11-24T22:56:12.012Z,5.70
2022-11-24T22:59:14.929Z,5.60
2022-11-24T23:02:18.237Z,5.70
2022-11-24T23:05:21.264Z,5.70
2022-11-24T23:08:24.208Z,5.70
2022-11-24T23:11:36.338Z,5.70
2022-11-24T23:14:40.329Z,5.60
2022-11-24T23:17:43.261Z,5.70
2022-11-24T23:20:46.188Z,5.70
2022-11-24T23:23:50.332Z,5.60
2022-11-24T23:26:54.584Z,5.60
2022-11-24T23:29:57.574Z,5.60
2022-11-24T23:33:00.557Z,5.60
2022-11-24T23:36:04.349Z,5.60
2022-11-24T23:39:09.112Z,5.60
2022-11-24T23:42:13.389Z,5.70
2022-11-24T23:45:16.524Z,5.70
2022-11-24T23:48:19.599Z,5.70
2022-11-24T23:51:24.185Z,5.70
2022-11-24T23:54:27.127Z,5.60
2022-11-24T23:57:31.434Z,5.60
